Terminal Aerodrome Forecast
Issued by NWS

Home | Current Version | Previous Version | Text Only | Print | Product List | Glossary On
Versions: 1 2 3 4 5 6 7 8 9 10 11 12 13 14 15 16 17 18 19 20 21 22 23 24 25 26
122
FTUS45 KSLC 230221 AAA
TAFLGU
TAF AMD
KLGU 230221Z 2302/2324 18012G20KT P6SM SCT100 BKN150
     FM230400 VRB04KT P6SM VCSH SCT070 BKN100=

USA.gov is the U.S. government's official web portal to all federal, state and local government web resources and services.